Time,TemperatureF,DewpointF,PressureIn,WindDirection,WindDirectionDegrees,WindSpeedMPH,WindSpeedGustMPH,Humidity,HourlyPrecipIn,Conditions,Clouds,dailyrainin,SolarRadiationWatts/m^2,SoftwareType,DateUTC
2013-09-23 00:01:00,52.0,46.0,-100.00,SSE,168,1.0,5.0,81,0.00,,,0.00,0.000000,,2013-09-23 04:01:00,
2013-09-23 00:24:00,52.0,46.0,-100.00,SSE,168,1.0,5.0,81,0.00,,,0.00,0.000000,,2013-09-23 04:24:00,
2013-09-23 00:34:00,52.0,46.0,-100.00,SSE,168,1.0,5.0,81,0.00,,,0.00,0.000000,,2013-09-23 04:34:00,
2013-09-23 00:43:00,52.0,46.0,-100.00,SSE,168,1.0,5.0,81,0.00,,,0.00,0.000000,,2013-09-23 04:43:00,
2013-09-23 00:54:00,52.0,46.0,-100.00,SSE,168,1.0,5.0,81,0.00,,,0.00,0.000000,,2013-09-23 04:54:00,
2013-09-23 01:01:00,51.0,47.0,-100.00,SW,215,1.0,4.0,85,0.00,,,0.00,0.000000,,2013-09-23 05:01:00,
2013-09-23 01:23:00,51.0,47.0,-100.00,SW,215,1.0,4.0,85,0.00,,,0.00,0.000000,,2013-09-23 05:23:00,
2013-09-23 01:34:00,51.0,47.0,-100.00,SW,215,1.0,4.0,85,0.00,,,0.00,0.000000,,2013-09-23 05:34:00,
2013-09-23 01:43:00,51.0,47.0,-100.00,SW,215,1.0,4.0,85,0.00,,,0.00,0.000000,,2013-09-23 05:43:00,
2013-09-23 01:53:00,51.0,47.0,-100.00,SW,215,1.0,4.0,85,0.00,,,0.00,0.000000,,2013-09-23 05:53:00,
2013-09-23 02:01:00,48.0,46.0,-100.00,SW,224,2.0,3.0,92,0.00,,,0.00,0.000000,,2013-09-23 06:01:00,
2013-09-23 02:22:00,48.0,46.0,-100.00,SW,224,2.0,3.0,92,0.00,,,0.00,0.000000,,2013-09-23 06:22:00,
2013-09-23 02:32:00,48.0,46.0,-100.00,SW,224,2.0,3.0,92,0.00,,,0.00,0.000000,,2013-09-23 06:32:00,
2013-09-23 02:42:00,48.0,46.0,-100.00,SW,224,2.0,3.0,92,0.00,,,0.00,0.000000,,2013-09-23 06:42:00,
2013-09-23 02:52:00,48.0,46.0,-100.00,SW,224,2.0,3.0,92,0.00,,,0.00,0.000000,,2013-09-23 06:52:00,
2013-09-23 03:01:00,47.0,46.0,-100.00,North,9,1.0,2.0,97,0.00,,,0.00,0.000000,,2013-09-23 07:01:00,
2013-09-23 03:42:00,47.0,46.0,-100.00,North,9,1.0,2.0,97,0.00,,,0.00,0.000000,,2013-09-23 07:42:00,
2013-09-23 03:52:00,47.0,46.0,-100.00,North,9,1.0,2.0,97,0.00,,,0.00,0.000000,,2013-09-23 07:52:00,
2013-09-23 04:01:00,47.0,46.0,-100.00,NNE,31,1.0,1.0,95,0.00,,,0.00,0.000000,,2013-09-23 08:01:00,
2013-09-23 04:23:00,47.0,46.0,-100.00,NNE,31,1.0,1.0,95,0.00,,,0.00,0.000000,,2013-09-23 08:23:00,
2013-09-23 04:32:00,47.0,46.0,-100.00,NNE,31,1.0,1.0,95,0.00,,,0.00,0.000000,,2013-09-23 08:32:00,
2013-09-23 04:42:00,47.0,46.0,-100.00,NNE,31,1.0,1.0,95,0.00,,,0.00,0.000000,,2013-09-23 08:42:00,
2013-09-23 04:52:00,47.0,46.0,-100.00,NNE,31,1.0,1.0,95,0.00,,,0.00,0.000000,,2013-09-23 08:52:00,
2013-09-23 05:01:00,46.0,44.0,-100.00,NE,50,0.0,1.0,93,0.00,,,0.00,0.000000,,2013-09-23 09:01:00,
2013-09-23 05:43:00,46.0,44.0,-100.00,NE,50,0.0,1.0,93,0.00,,,0.00,0.000000,,2013-09-23 09:43:00,
2013-09-23 05:53:00,46.0,44.0,-100.00,NE,50,0.0,1.0,93,0.00,,,0.00,0.000000,,2013-09-23 09:53:00,
2013-09-23 06:01:00,46.0,45.0,-100.00,ESE,107,0.0,2.0,96,0.00,,,0.00,0.000000,,2013-09-23 10:01:00,
2013-09-23 06:43:00,46.0,45.0,-100.00,ESE,107,0.0,2.0,96,0.00,,,0.00,0.000000,,2013-09-23 10:43:00,
2013-09-23 06:53:00,46.0,45.0,-100.00,ESE,107,0.0,2.0,96,0.00,,,0.00,0.000000,,2013-09-23 10:53:00,
2013-09-23 07:01:00,44.0,43.0,-100.00,ENE,60,1.0,2.0,97,0.00,,,0.00,0.000000,,2013-09-23 11:01:00,
2013-09-23 07:42:00,44.0,43.0,-100.00,ENE,60,1.0,2.0,97,0.00,,,0.00,0.000000,,2013-09-23 11:42:00,
2013-09-23 07:52:00,44.0,43.0,-100.00,ENE,60,1.0,2.0,97,0.00,,,0.00,0.000000,,2013-09-23 11:52:00,
2013-09-23 08:01:00,44.0,43.0,-100.00,East,86,1.0,2.0,98,0.00,,,0.00,15.000000,,2013-09-23 12:01:00,
2013-09-23 08:22:00,44.0,43.0,-100.00,East,86,1.0,2.0,98,0.00,,,0.00,15.000000,,2013-09-23 12:22:00,
2013-09-23 08:32:00,44.0,43.0,-100.00,East,86,1.0,2.0,98,0.00,,,0.00,15.000000,,2013-09-23 12:32:00,
2013-09-23 08:42:00,44.0,43.0,-100.00,East,86,1.0,2.0,98,0.00,,,0.00,15.000000,,2013-09-23 12:42:00,
2013-09-23 08:52:00,44.0,43.0,-100.00,East,86,1.0,2.0,98,0.00,,,0.00,15.000000,,2013-09-23 12:52:00,
2013-09-23 09:01:00,48.0,47.0,-100.00,NE,52,2.0,4.0,98,0.00,,,0.00,80.000000,,2013-09-23 13:01:00,
2013-09-23 09:22:00,48.0,47.0,-100.00,NE,52,2.0,4.0,98,0.00,,,0.00,80.000000,,2013-09-23 13:22:00,
2013-09-23 09:32:00,48.0,47.0,-100.00,NE,52,2.0,4.0,98,0.00,,,0.00,80.000000,,2013-09-23 13:32:00,
2013-09-23 09:42:00,48.0,47.0,-100.00,NE,52,2.0,4.0,98,0.00,,,0.00,80.000000,,2013-09-23 13:42:00,
2013-09-23 09:52:00,48.0,47.0,-100.00,NE,52,2.0,4.0,98,0.00,,,0.00,80.000000,,2013-09-23 13:52:00,
2013-09-23 10:01:00,53.0,49.0,-100.00,NE,34,4.0,7.0,87,0.00,,,0.00,328.000000,,2013-09-23 14:01:00,
2013-09-23 10:43:00,53.0,49.0,-100.00,NE,34,4.0,7.0,87,0.00,,,0.00,328.000000,,2013-09-23 14:43:00,
2013-09-23 10:52:00,53.0,49.0,-100.00,NE,34,4.0,7.0,87,0.00,,,0.00,328.000000,,2013-09-23 14:52:00,
2013-09-23 11:01:00,58.0,48.0,-100.00,ENE,57,2.0,7.0,69,0.00,,,0.00,621.000000,,2013-09-23 15:01:00,
2013-09-23 11:22:00,58.0,48.0,-100.00,ENE,57,2.0,7.0,69,0.00,,,0.00,621.000000,,2013-09-23 15:22:00,
2013-09-23 11:33:00,58.0,48.0,-100.00,ENE,57,2.0,7.0,69,0.00,,,0.00,621.000000,,2013-09-23 15:33:00,
2013-09-23 11:43:00,58.0,48.0,-100.00,ENE,57,2.0,7.0,69,0.00,,,0.00,621.000000,,2013-09-23 15:43:00,
2013-09-23 11:54:00,58.0,48.0,-100.00,ENE,57,2.0,7.0,69,0.00,,,0.00,621.000000,,2013-09-23 15:54:00,
2013-09-23 12:01:00,61.0,49.0,-100.00,SE,139,3.0,7.0,64,0.00,,,0.00,768.000000,,2013-09-23 16:01:00,
2013-09-23 12:43:00,61.0,49.0,-100.00,SE,139,3.0,7.0,64,0.00,,,0.00,768.000000,,2013-09-23 16:43:00,
2013-09-23 12:53:00,61.0,49.0,-100.00,SE,139,3.0,7.0,64,0.00,,,0.00,768.000000,,2013-09-23 16:53:00,
2013-09-23 13:01:00,62.0,47.0,-100.00,NE,56,2.0,6.0,58,0.00,,,0.00,792.000000,,2013-09-23 17:01:00,
2013-09-23 13:42:00,62.0,47.0,-100.00,NE,56,2.0,6.0,58,0.00,,,0.00,792.000000,,2013-09-23 17:42:00,
2013-09-23 13:52:00,62.0,47.0,-100.00,NE,56,2.0,6.0,58,0.00,,,0.00,792.000000,,2013-09-23 17:52:00,
2013-09-23 14:01:00,70.0,54.0,-100.00,South,183,3.0,7.0,57,0.00,,,0.00,814.000000,,2013-09-23 18:01:00,
2013-09-23 14:42:00,70.0,54.0,-100.00,South,183,3.0,7.0,57,0.00,,,0.00,814.000000,,2013-09-23 18:42:00,
2013-09-23 14:52:00,70.0,54.0,-100.00,South,183,3.0,7.0,57,0.00,,,0.00,814.000000,,2013-09-23 18:52:00,
2013-09-23 15:01:00,70.0,52.0,-100.00,NE,44,3.0,6.0,52,0.00,,,0.00,862.000000,,2013-09-23 19:01:00,
2013-09-23 15:42:00,70.0,52.0,-100.00,NE,44,3.0,6.0,52,0.00,,,0.00,862.000000,,2013-09-23 19:42:00,
2013-09-23 15:53:00,70.0,52.0,-100.00,NE,44,3.0,6.0,52,0.00,,,0.00,862.000000,,2013-09-23 19:53:00,
2013-09-23 16:01:00,72.0,54.0,-100.00,NW,312,2.0,8.0,54,0.00,,,0.00,719.000000,,2013-09-23 20:01:00,
2013-09-23 16:22:00,72.0,54.0,-100.00,NW,312,2.0,8.0,54,0.00,,,0.00,719.000000,,2013-09-23 20:22:00,
2013-09-23 16:32:00,72.0,54.0,-100.00,NW,312,2.0,8.0,54,0.00,,,0.00,719.000000,,2013-09-23 20:32:00,
2013-09-23 16:42:00,72.0,54.0,-100.00,NW,312,2.0,8.0,54,0.00,,,0.00,719.000000,,2013-09-23 20:42:00,
2013-09-23 16:52:00,72.0,54.0,-100.00,NW,312,2.0,8.0,54,0.00,,,0.00,719.000000,,2013-09-23 20:52:00,
2013-09-23 17:01:00,71.0,52.0,-100.00,South,185,2.0,6.0,52,0.00,,,0.00,523.000000,,2013-09-23 21:01:00,
2013-09-23 17:44:00,71.0,52.0,-100.00,South,185,2.0,6.0,52,0.00,,,0.00,523.000000,,2013-09-23 21:44:00,
2013-09-23 17:54:00,71.0,52.0,-100.00,South,185,2.0,6.0,52,0.00,,,0.00,523.000000,,2013-09-23 21:54:00,
2013-09-23 18:01:00,65.0,53.0,-100.00,SSW,204,3.0,7.0,65,0.00,,,0.00,194.000000,,2013-09-23 22:01:00,
2013-09-23 18:43:00,65.0,53.0,-100.00,SSW,204,3.0,7.0,65,0.00,,,0.00,194.000000,,2013-09-23 22:43:00,
2013-09-23 18:54:00,65.0,53.0,-100.00,SSW,204,3.0,7.0,65,0.00,,,0.00,194.000000,,2013-09-23 22:54:00,
2013-09-23 19:01:00,60.0,53.0,-100.00,SSW,198,1.0,6.0,77,0.00,,,0.00,23.000000,,2013-09-23 23:01:00,
2013-09-23 19:42:00,60.0,53.0,-100.00,SSW,198,1.0,6.0,77,0.00,,,0.00,23.000000,,2013-09-23 23:42:00,
2013-09-23 19:54:00,60.0,53.0,-100.00,SSW,198,1.0,6.0,77,0.00,,,0.00,23.000000,,2013-09-23 23:54:00,
2013-09-23 20:01:00,57.0,51.0,-100.00,NNE,20,2.0,3.0,80,0.00,,,0.00,2.000000,,2013-09-24 00:01:00,
2013-09-23 20:22:00,57.0,51.0,-100.00,NNE,20,2.0,3.0,80,0.00,,,0.00,2.000000,,2013-09-24 00:22:00,
2013-09-23 20:32:00,57.0,51.0,-100.00,NNE,20,2.0,3.0,80,0.00,,,0.00,2.000000,,2013-09-24 00:32:00,
2013-09-23 20:43:00,57.0,51.0,-100.00,NNE,20,2.0,3.0,80,0.00,,,0.00,2.000000,,2013-09-24 00:43:00,
2013-09-23 20:52:00,57.0,51.0,-100.00,NNE,20,2.0,3.0,80,0.00,,,0.00,2.000000,,2013-09-24 00:52:00,
2013-09-23 21:01:00,55.0,51.0,-100.00,North,4,1.0,5.0,87,0.00,,,0.00,0.000000,,2013-09-24 01:01:00,
2013-09-23 21:22:00,55.0,51.0,-100.00,North,4,1.0,5.0,87,0.00,,,0.00,0.000000,,2013-09-24 01:22:00,
2013-09-23 21:32:00,55.0,51.0,-100.00,North,4,1.0,5.0,87,0.00,,,0.00,0.000000,,2013-09-24 01:32:00,
2013-09-23 21:43:00,55.0,51.0,-100.00,North,4,1.0,5.0,87,0.00,,,0.00,0.000000,,2013-09-24 01:43:00,
2013-09-23 21:52:00,55.0,51.0,-100.00,North,4,1.0,5.0,87,0.00,,,0.00,0.000000,,2013-09-24 01:52:00,
2013-09-23 22:01:00,54.0,51.0,-100.00,NNE,26,2.0,3.0,90,0.00,,,0.00,0.000000,,2013-09-24 02:01:00,
2013-09-23 22:42:00,54.0,51.0,-100.00,NNE,26,2.0,3.0,90,0.00,,,0.00,0.000000,,2013-09-24 02:42:00,
2013-09-23 22:52:00,54.0,51.0,-100.00,NNE,26,2.0,3.0,90,0.00,,,0.00,0.000000,,2013-09-24 02:52:00,
2013-09-23 23:01:00,55.0,50.0,-100.00,NNE,30,1.0,3.0,83,0.00,,,0.00,0.000000,,2013-09-24 03:01:00,
2013-09-23 23:45:00,55.0,50.0,-100.00,NNE,30,1.0,3.0,83,0.00,,,0.00,0.000000,,2013-09-24 03:45:00,
2013-09-23 23:55:00,55.0,50.0,-100.00,NNE,30,1.0,3.0,83,0.00,,,0.00,0.000000,,2013-09-24 03:55:00,